Time;durP1;ratioP1;P1;durP2;ratioP2;P2;SDS_P1;SDS_P2;PMS_P1;PMS_P2;Temp;Humidity;BMP_temperature;BMP_pressure;BME280_temperature;BME280_humidity;BME280_pressure;Samples;Min_cycle;Max_cycle;Signal;HPM_P1;HPM_P2
2023/06/27 00:01:06;;;;;;;1.97;1.60;;;14.70;99.90;;;;;;5095040;28;20183;-41
2023/06/27 00:03:33;;;;;;;3.00;1.67;;;14.70;99.90;;;;;;5094240;28;20662;-41
2023/06/27 00:06:00;;;;;;;3.90;1.20;;;14.70;99.90;;;;;;5094057;28;20327;-40
2023/06/27 00:08:29;;;;;;;2.30;1.50;;;14.70;99.90;;;;;;5094063;28;20189;-41
2023/06/27 00:10:55;;;;;;;3.33;1.87;;;14.70;99.90;;;;;;5094252;28;20186;-40
2023/06/27 00:13:20;;;;;;;2.87;1.50;;;14.70;99.90;;;;;;5094053;28;20178;-41
2023/06/27 00:15:52;;;;;;;2.37;1.50;;;14.60;99.90;;;;;;5093901;28;20274;-41
2023/06/27 00:18:21;;;;;;;2.40;1.30;;;14.60;99.90;;;;;;5094096;28;20194;-40
2023/06/27 00:20:50;;;;;;;3.93;1.10;;;14.60;99.90;;;;;;5094360;28;20627;-42
2023/06/27 00:23:22;;;;;;;3.03;1.57;;;14.60;99.90;;;;;;5075848;28;20228;-42
2023/06/27 00:25:48;;;;;;;1.77;1.37;;;14.60;99.90;;;;;;5093626;28;20693;-41
2023/06/27 00:28:14;;;;;;;3.23;1.53;;;14.60;99.90;;;;;;5094104;28;20253;-42
2023/06/27 00:30:40;;;;;;;7.47;1.63;;;14.60;99.90;;;;;;5094391;28;20663;-42
2023/06/27 00:33:07;;;;;;;4.60;1.80;;;14.60;99.90;;;;;;5093608;28;20179;-41
2023/06/27 00:35:33;;;;;;;2.50;1.57;;;14.50;99.90;;;;;;5093770;28;20194;-41
2023/06/27 00:38:02;;;;;;;3.77;1.93;;;14.60;99.90;;;;;;5075407;28;20256;-41
2023/06/27 00:40:28;;;;;;;1.73;1.40;;;14.60;99.90;;;;;;5093794;28;20220;-39
2023/06/27 00:42:53;;;;;;;1.83;1.30;;;14.60;99.90;;;;;;5093538;28;20648;-41
2023/06/27 00:45:22;;;;;;;5.27;1.93;;;14.60;99.90;;;;;;5094582;28;20195;-40
2023/06/27 00:47:47;;;;;;;6.67;1.73;;;14.60;99.90;;;;;;5093504;28;20174;-40
2023/06/27 00:50:13;;;;;;;4.60;1.50;;;14.60;99.90;;;;;;5093449;28;20263;-42
2023/06/27 00:52:40;;;;;;;1.93;1.57;;;14.60;99.90;;;;;;5093511;28;20178;-40
2023/06/27 00:55:07;;;;;;;2.63;1.57;;;14.60;99.90;;;;;;5093268;28;20233;-38
2023/06/27 00:57:33;;;;;;;2.97;1.60;;;14.50;99.90;;;;;;5093277;28;20238;-40
2023/06/27 00:59:59;;;;;;;3.10;1.70;;;14.50;99.90;;;;;;5093457;28;20596;-41
2023/06/27 01:02:25;;;;;;;4.57;1.80;;;14.50;99.90;;;;;;5093277;28;20183;-41
2023/06/27 01:04:52;;;;;;;3.13;1.63;;;14.50;99.90;;;;;;5095093;28;20209;-40
2023/06/27 01:07:28;;;;;;;3.17;1.77;;;14.50;99.90;;;;;;5098171;28;20320;-38
2023/06/27 01:10:00;;;;;;;5.07;1.53;;;14.50;99.90;;;;;;5079377;28;20178;-39
2023/06/27 01:12:44;;;;;;;4.27;1.60;;;14.50;99.90;;;;;;5097556;28;20159;-40
2023/06/27 01:15:09;;;;;;;3.27;1.90;;;14.50;99.90;;;;;;5079079;28;20210;-40
2023/06/27 01:17:37;;;;;;;4.87;1.80;;;14.50;99.90;;;;;;5097242;28;20218;-40
2023/06/27 01:20:05;;;;;;;2.67;1.70;;;14.50;99.90;;;;;;5097472;28;20171;-42
2023/06/27 01:22:36;;;;;;;2.00;1.40;;;14.50;99.90;;;;;;5097123;28;20175;-39
2023/06/27 01:25:06;;;;;;;5.47;2.10;;;14.50;99.90;;;;;;5097145;28;20209;-41
2023/06/27 01:27:33;;;;;;;2.20;1.63;;;14.50;99.90;;;;;;5097316;28;20171;-41
2023/06/27 01:29:58;;;;;;;3.50;1.70;;;14.40;99.90;;;;;;5097457;28;20244;-39
2023/06/27 01:32:34;;;;;;;3.23;1.83;;;14.40;99.90;;;;;;5097278;28;20187;-40
2023/06/27 01:35:19;;;;;;;2.23;1.80;;;14.40;99.90;;;;;;5096846;28;20259;-39
2023/06/27 01:37:53;;;;;;;3.90;1.70;;;14.40;99.90;;;;;;5097000;28;20214;-41
2023/06/27 01:40:20;;;;;;;3.37;2.07;;;14.40;99.90;;;;;;5096914;28;20155;-40
2023/06/27 01:42:57;;;;;;;5.63;2.10;;;14.40;99.90;;;;;;5096812;28;20178;-38
2023/06/27 01:45:23;;;;;;;3.90;2.30;;;14.40;99.90;;;;;;5096833;28;20543;-39
2023/06/27 01:47:49;;;;;;;4.23;2.27;;;14.40;99.90;;;;;;5096655;28;20711;-39
2023/06/27 01:50:15;;;;;;;2.83;1.93;;;14.30;99.90;;;;;;5096976;28;20282;-41
2023/06/27 01:52:41;;;;;;;4.37;1.90;;;14.30;99.90;;;;;;5096905;28;20583;-41
2023/06/27 01:55:08;;;;;;;5.90;2.40;;;14.30;99.90;;;;;;5096768;28;20245;-43
2023/06/27 01:57:33;;;;;;;5.33;2.70;;;14.30;99.90;;;;;;5096451;28;20190;-40
2023/06/27 01:59:59;;;;;;;7.27;2.60;;;14.30;99.90;;;;;;5096669;28;20586;-39
2023/06/27 02:02:25;;;;;;;4.97;2.77;;;14.30;99.90;;;;;;5096628;28;20224;-39
2023/06/27 02:04:50;;;;;;;4.27;2.00;;;14.30;99.90;;;;;;5096456;28;20199;-41
2023/06/27 02:07:16;;;;;;;3.23;2.23;;;14.20;99.90;;;;;;5078279;28;20647;-39
2023/06/27 02:09:41;;;;;;;4.47;1.87;;;14.20;99.90;;;;;;5096374;28;20662;-40
2023/06/27 02:12:09;;;;;;;4.93;2.20;;;14.20;99.90;;;;;;5096702;28;20544;-40
2023/06/27 02:14:35;;;;;;;4.17;2.30;;;14.20;99.90;;;;;;5096180;28;20714;-41
2023/06/27 02:17:00;;;;;;;5.37;1.90;;;14.20;99.90;;;;;;5095667;28;20186;-41
2023/06/27 02:19:26;;;;;;;3.47;1.93;;;14.20;99.90;;;;;;5096038;28;20252;-40
2023/06/27 02:21:51;;;;;;;5.57;2.57;;;14.20;99.90;;;;;;5077969;28;20170;-42
2023/06/27 02:24:17;;;;;;;3.63;1.83;;;14.20;99.90;;;;;;5097173;28;20238;-41
2023/06/27 02:26:43;;;;;;;3.43;2.07;;;14.10;99.90;;;;;;5097666;28;20265;-40
2023/06/27 02:29:09;;;;;;;5.27;1.90;;;14.10;99.90;;;;;;5096184;28;20178;-40
2023/06/27 02:31:35;;;;;;;5.60;2.07;;;14.10;99.90;;;;;;5095927;28;20236;-42
2023/06/27 02:34:01;;;;;;;6.63;2.00;;;14.10;99.90;;;;;;5096055;28;20282;-40
2023/06/27 02:36:27;;;;;;;5.07;2.40;;;14.00;99.90;;;;;;5095749;28;20199;-40
2023/06/27 02:38:56;;;;;;;8.60;2.20;;;14.00;99.90;;;;;;5095966;28;20202;-42
2023/06/27 02:41:23;;;;;;;3.10;1.97;;;14.00;99.90;;;;;;5095769;28;20179;-42
2023/06/27 02:43:49;;;;;;;3.97;2.13;;;14.00;99.90;;;;;;5095835;28;20265;-40
2023/06/27 02:46:15;;;;;;;6.20;2.03;;;14.00;99.90;;;;;;5095682;28;20183;-41
2023/06/27 02:48:41;;;;;;;3.23;2.20;;;14.00;99.90;;;;;;5095821;28;20187;-42
2023/06/27 02:51:06;;;;;;;5.90;2.40;;;14.00;99.90;;;;;;5095616;28;20189;-41
2023/06/27 02:53:32;;;;;;;4.53;2.10;;;14.00;99.90;;;;;;5095631;28;20233;-40
2023/06/27 02:56:02;;;;;;;6.43;1.73;;;14.00;99.90;;;;;;5095388;28;20202;-40
2023/06/27 02:58:28;;;;;;;5.33;2.40;;;14.10;99.90;;;;;;5095384;28;20202;-41
2023/06/27 03:00:53;;;;;;;4.27;2.30;;;14.10;99.90;;;;;;5095426;28;20180;-41
2023/06/27 03:03:19;;;;;;;5.30;2.17;;;14.10;99.90;;;;;;5095558;28;20216;-41
2023/06/27 03:05:45;;;;;;;4.03;2.10;;;14.10;99.90;;;;;;5096163;28;20256;-41
2023/06/27 03:08:10;;;;;;;7.17;2.27;;;14.10;99.90;;;;;;5096651;28;20659;-41
2023/06/27 03:10:36;;;;;;;5.03;2.40;;;14.10;99.90;;;;;;5095230;28;20185;-40
2023/06/27 03:13:02;;;;;;;4.87;2.13;;;14.10;99.90;;;;;;5077076;28;20187;-41
2023/06/27 03:15:28;;;;;;;4.97;2.07;;;14.10;99.90;;;;;;5095136;28;20198;-40
2023/06/27 03:17:53;;;;;;;4.70;1.90;;;14.10;99.90;;;;;;5096645;28;20213;-41
2023/06/27 03:20:20;;;;;;;3.43;1.93;;;14.10;99.90;;;;;;5097025;28;20171;-41
2023/06/27 03:22:46;;;;;;;4.23;2.10;;;14.10;99.90;;;;;;5097116;28;20170;-41
2023/06/27 03:25:12;;;;;;;6.27;2.30;;;14.10;99.90;;;;;;5096062;28;20195;-41
2023/06/27 03:27:37;;;;;;;4.47;1.80;;;14.10;99.90;;;;;;5094160;28;20174;-41
2023/06/27 03:30:04;;;;;;;3.00;1.90;;;14.10;99.90;;;;;;5094675;28;20182;-43
2023/06/27 03:32:29;;;;;;;4.30;2.03;;;14.10;99.90;;;;;;5095024;28;20193;-42
2023/06/27 03:34:55;;;;;;;4.97;2.30;;;14.10;99.90;;;;;;5094758;28;20198;-43
2023/06/27 03:37:21;;;;;;;3.40;1.63;;;14.10;99.90;;;;;;5094476;28;20236;-41
2023/06/27 03:39:47;;;;;;;5.00;1.80;;;14.10;99.90;;;;;;5094556;28;20175;-39
2023/06/27 03:42:12;;;;;;;9.47;2.20;;;14.10;99.90;;;;;;5094484;28;20542;-41
2023/06/27 03:44:38;;;;;;;8.00;2.23;;;14.10;99.90;;;;;;5095176;28;20206;-40
2023/06/27 03:47:04;;;;;;;3.77;2.07;;;14.00;99.90;;;;;;5094416;28;20182;-41
2023/06/27 03:49:30;;;;;;;6.87;2.17;;;14.00;99.90;;;;;;5095225;28;20643;-41
2023/06/27 03:51:56;;;;;;;5.70;2.20;;;14.00;99.90;;;;;;5094324;28;20261;-42
2023/06/27 03:54:21;;;;;;;6.20;2.70;;;14.00;99.90;;;;;;5094134;28;20206;-39
2023/06/27 03:56:48;;;;;;;5.03;2.53;;;14.00;99.90;;;;;;5094363;28;20194;-39
2023/06/27 03:59:13;;;;;;;9.33;3.30;;;14.00;99.90;;;;;;5094005;28;20210;-40
2023/06/27 04:01:41;;;;;;;4.80;3.13;;;14.00;99.90;;;;;;5094480;28;20525;-42
2023/06/27 04:04:10;;;;;;;5.47;2.90;;;14.00;99.90;;;;;;5093980;28;20198;-39
2023/06/27 04:06:36;;;;;;;7.50;3.30;;;14.00;99.90;;;;;;5093950;28;20181;-42
2023/06/27 04:09:05;;;;;;;9.00;3.40;;;14.00;99.90;;;;;;5093945;28;20187;-41
2023/06/27 04:11:31;;;;;;;8.13;3.17;;;14.00;99.90;;;;;;5093713;28;20214;-40
2023/06/27 04:13:59;;;;;;;11.83;3.50;;;14.00;99.90;;;;;;5093599;28;20222;-40
2023/06/27 04:16:25;;;;;;;7.37;3.67;;;14.00;99.90;;;;;;5093742;28;20261;-40
2023/06/27 04:18:50;;;;;;;6.60;3.47;;;13.90;99.90;;;;;;5093573;28;20256;-41
2023/06/27 04:21:16;;;;;;;4.47;3.30;;;14.00;99.90;;;;;;5075554;28;20188;-41
2023/06/27 04:23:41;;;;;;;9.23;4.77;;;14.00;99.90;;;;;;5093577;28;20263;-42
2023/06/27 04:26:15;;;;;;;6.83;4.03;;;13.90;99.90;;;;;;5093889;28;20178;-42
2023/06/27 04:28:41;;;;;;;10.87;6.13;;;13.90;99.90;;;;;;5093586;28;20171;-43
2023/06/27 04:31:06;;;;;;;15.73;6.83;;;13.90;99.90;;;;;;5093498;28;20179;-40
2023/06/27 04:33:32;;;;;;;12.13;7.07;;;13.90;99.90;;;;;;5093381;28;20212;-40
2023/06/27 04:36:01;;;;;;;14.97;7.87;;;13.90;99.90;;;;;;5093347;28;20203;-41
2023/06/27 04:38:30;;;;;;;9.10;5.10;;;13.90;99.90;;;;;;5093006;28;20666;-43
2023/06/27 04:40:56;;;;;;;11.20;5.60;;;13.90;99.90;;;;;;5093695;28;20206;-43
2023/06/27 04:43:22;;;;;;;17.60;5.57;;;13.90;99.90;;;;;;5093319;28;20664;-41
2023/06/27 04:45:48;;;;;;;10.90;5.20;;;13.90;99.90;;;;;;5093313;28;20203;-41
2023/06/27 04:48:13;;;;;;;11.93;4.73;;;13.90;99.90;;;;;;5093465;28;20692;-42
2023/06/27 04:50:39;;;;;;;11.03;4.33;;;13.90;99.90;;;;;;5093842;28;20178;-42
2023/06/27 04:53:05;;;;;;;10.37;4.50;;;13.90;99.90;;;;;;5093259;28;20631;-42
2023/06/27 04:55:31;;;;;;;8.73;3.20;;;13.90;99.90;;;;;;5093233;28;20284;-41
2023/06/27 04:57:57;;;;;;;13.57;4.30;;;14.00;99.90;;;;;;5093146;28;20210;-40
2023/06/27 05:00:22;;;;;;;8.80;3.27;;;14.00;99.90;;;;;;5093202;28;20191;-42
2023/06/27 05:02:48;;;;;;;8.90;3.33;;;14.10;99.90;;;;;;5093188;28;20167;-40
2023/06/27 05:05:13;;;;;;;6.63;3.77;;;14.10;99.90;;;;;;5093107;28;20229;-43
2023/06/27 05:07:39;;;;;;;8.70;3.70;;;14.10;99.90;;;;;;5093613;28;20545;-41
2023/06/27 05:10:05;;;;;;;14.90;3.80;;;14.20;99.90;;;;;;5093241;28;20206;-43
2023/06/27 05:12:30;;;;;;;8.97;3.90;;;14.20;99.90;;;;;;5075055;28;20178;-41
2023/06/27 05:14:56;;;;;;;6.50;3.43;;;14.20;99.90;;;;;;5093208;28;20194;-41
2023/06/27 05:17:21;;;;;;;11.27;4.40;;;14.20;99.90;;;;;;5093419;28;20175;-42
2023/06/27 05:19:47;;;;;;;12.80;5.03;;;14.30;99.90;;;;;;5093667;28;20182;-42
2023/06/27 05:22:13;;;;;;;10.60;4.70;;;14.30;99.90;;;;;;5093463;28;20182;-45
2023/06/27 05:24:39;;;;;;;14.17;4.60;;;14.40;99.90;;;;;;5093332;28;20199;-42
2023/06/27 05:27:04;;;;;;;11.00;4.40;;;14.40;99.90;;;;;;5093066;28;20647;-43
2023/06/27 05:29:30;;;;;;;12.00;3.40;;;14.50;99.90;;;;;;5093235;28;20174;-43
2023/06/27 05:31:55;;;;;;;10.87;3.13;;;14.60;99.90;;;;;;5093222;28;20191;-42
2023/06/27 05:34:21;;;;;;;7.90;2.60;;;14.70;99.90;;;;;;5092888;28;20208;-42
2023/06/27 05:36:47;;;;;;;5.97;2.70;;;14.80;99.90;;;;;;5092874;28;20648;-42
2023/06/27 05:39:12;;;;;;;7.10;2.40;;;15.00;99.90;;;;;;5093124;28;20209;-40
2023/06/27 05:41:38;;;;;;;9.63;2.47;;;15.10;99.90;;;;;;5093273;28;20596;-42
2023/06/27 05:44:03;;;;;;;11.20;2.70;;;15.20;99.90;;;;;;5092839;28;20202;-41
2023/06/27 05:46:34;;;;;;;9.63;2.70;;;15.30;99.90;;;;;;5092847;28;20187;-40
2023/06/27 05:49:00;;;;;;;12.23;3.00;;;15.40;99.90;;;;;;5093276;28;20230;-40
2023/06/27 05:51:25;;;;;;;10.50;2.60;;;15.60;99.90;;;;;;5094888;28;20198;-39
2023/06/27 05:53:51;;;;;;;8.53;2.40;;;15.70;99.90;;;;;;5096255;28;20228;-41
2023/06/27 05:56:16;;;;;;;10.57;2.93;;;15.80;99.90;;;;;;5078899;28;20210;-46
2023/06/27 05:58:42;;;;;;;14.37;2.63;;;15.90;99.90;;;;;;5097396;28;20249;-45
2023/06/27 06:01:08;;;;;;;9.23;2.70;;;16.00;99.90;;;;;;5097810;28;20189;-46
2023/06/27 06:03:33;;;;;;;22.80;3.93;;;16.20;99.90;;;;;;5096275;28;20186;-46
2023/06/27 06:05:59;;;;;;;9.53;2.80;;;16.30;99.90;;;;;;5096626;28;20325;-48
2023/06/27 06:08:24;;;;;;;6.63;2.70;;;16.40;99.90;;;;;;5098717;28;20805;-46
2023/06/27 06:10:50;;;;;;;8.07;2.20;;;16.60;99.90;;;;;;5097083;28;20250;-44
2023/06/27 06:13:16;;;;;;;9.80;2.40;;;16.70;99.90;;;;;;5096530;28;20571;-46
2023/06/27 06:15:41;;;;;;;7.27;2.57;;;16.90;99.90;;;;;;5098324;28;20272;-44
2023/06/27 06:18:07;;;;;;;11.53;2.40;;;17.10;99.90;;;;;;5095917;28;20213;-47
2023/06/27 06:20:33;;;;;;;7.33;2.73;;;17.30;99.90;;;;;;5077764;28;20179;-47
2023/06/27 06:22:59;;;;;;;5.27;2.17;;;17.60;99.90;;;;;;5096131;28;20262;-47
2023/06/27 06:25:26;;;;;;;12.60;2.40;;;17.70;99.90;;;;;;5095723;28;20205;-46
2023/06/27 06:27:52;;;;;;;12.73;2.60;;;18.00;99.90;;;;;;5078004;28;20194;-47
2023/06/27 06:30:18;;;;;;;11.57;2.67;;;18.10;99.90;;;;;;5095923;28;20232;-47
2023/06/27 06:32:43;;;;;;;9.97;2.10;;;18.30;99.90;;;;;;5077522;28;20186;-47
2023/06/27 06:35:09;;;;;;;6.83;2.17;;;18.40;99.90;;;;;;5095645;28;20564;-46
2023/06/27 06:37:35;;;;;;;8.50;2.30;;;18.60;99.90;;;;;;5095856;28;20190;-47
2023/06/27 06:40:01;;;;;;;14.07;2.70;;;18.80;99.90;;;;;;5095433;28;20179;-47
2023/06/27 06:42:26;;;;;;;6.23;2.70;;;18.90;99.90;;;;;;5095437;28;20175;-47
2023/06/27 06:44:52;;;;;;;8.13;2.53;;;19.00;99.90;;;;;;5097330;28;20222;-47
2023/06/27 06:47:18;;;;;;;8.60;2.10;;;19.20;99.90;;;;;;5096222;28;20220;-47
2023/06/27 06:49:43;;;;;;;6.77;2.57;;;19.40;99.90;;;;;;5095321;28;20174;-47
2023/06/27 06:52:09;;;;;;;8.23;2.13;;;19.60;99.90;;;;;;5097705;28;20179;-47
2023/06/27 06:54:34;;;;;;;7.03;2.40;;;19.70;99.90;;;;;;5095369;28;20209;-47
2023/06/27 06:57:00;;;;;;;11.00;3.23;;;19.90;99.90;;;;;;5095230;28;20197;-46
2023/06/27 06:59:25;;;;;;;10.60;2.67;;;20.00;99.90;;;;;;5094998;28;20252;-47
2023/06/27 07:01:51;;;;;;;11.47;2.13;;;20.20;99.90;;;;;;5094970;28;20175;-46
2023/06/27 07:04:17;;;;;;;9.83;2.40;;;20.20;99.90;;;;;;5095881;28;20206;-47
2023/06/27 07:06:42;;;;;;;11.40;2.03;;;20.30;99.90;;;;;;5095249;28;20246;-47
2023/06/27 07:09:08;;;;;;;14.10;2.60;;;20.70;99.90;;;;;;5094953;28;20703;-48
2023/06/27 07:11:34;;;;;;;11.87;2.77;;;20.90;99.90;;;;;;5095504;28;20182;-47
2023/06/27 07:13:59;;;;;;;6.03;2.40;;;21.00;99.90;;;;;;5094842;28;20194;-48
2023/06/27 07:16:25;;;;;;;10.17;2.53;;;21.10;99.90;;;;;;5094685;28;20229;-49
2023/06/27 07:18:51;;;;;;;13.03;2.93;;;21.20;99.90;;;;;;5094864;28;20199;-47
2023/06/27 07:21:17;;;;;;;8.90;2.40;;;21.30;99.90;;;;;;5095301;28;20229;-46
2023/06/27 07:23:42;;;;;;;10.20;2.40;;;21.40;99.90;;;;;;5076399;28;20655;-47
2023/06/27 07:26:08;;;;;;;10.00;2.40;;;21.40;99.90;;;;;;5094593;28;20250;-48
2023/06/27 07:28:33;;;;;;;10.40;2.70;;;21.40;99.90;;;;;;5094793;28;20234;-47
2023/06/27 07:30:59;;;;;;;8.47;2.17;;;21.50;99.90;;;;;;5094516;28;20189;-47
2023/06/27 07:33:25;;;;;;;10.27;2.57;;;21.80;99.90;;;;;;5094477;28;20232;-48
2023/06/27 07:35:50;;;;;;;7.23;2.43;;;21.80;99.90;;;;;;5094310;28;20203;-47
2023/06/27 07:38:16;;;;;;;8.33;2.40;;;21.90;99.90;;;;;;5094754;28;20202;-48
2023/06/27 07:40:43;;;;;;;9.67;2.57;;;21.90;99.90;;;;;;5094264;28;20171;-48
2023/06/27 07:43:08;;;;;;;8.43;2.30;;;21.90;99.90;;;;;;5094166;28;20199;-46
2023/06/27 07:45:34;;;;;;;9.10;2.40;;;21.90;99.90;;;;;;5094163;28;20241;-48
2023/06/27 07:47:59;;;;;;;6.83;2.30;;;22.00;99.90;;;;;;5094554;28;20214;-47
2023/06/27 07:50:25;;;;;;;7.13;2.50;;;22.10;99.90;;;;;;5094222;28;20182;-49
2023/06/27 07:52:50;;;;;;;6.10;2.00;;;22.20;99.90;;;;;;5094426;28;20181;-49
2023/06/27 07:55:16;;;;;;;7.57;2.10;;;22.40;99.90;;;;;;5094206;28;20228;-48
2023/06/27 07:57:41;;;;;;;5.83;1.80;;;22.40;99.90;;;;;;5093864;28;20198;-47
2023/06/27 08:00:08;;;;;;;7.73;2.97;;;22.40;99.90;;;;;;5094243;28;20178;-47
2023/06/27 08:02:33;;;;;;;8.57;2.07;;;22.40;99.90;;;;;;5093970;28;20692;-48
2023/06/27 08:04:59;;;;;;;14.73;2.30;;;22.40;99.90;;;;;;5093951;28;20273;-48
2023/06/27 08:07:24;;;;;;;8.10;2.40;;;22.50;99.90;;;;;;5093858;28;20175;-48
2023/06/27 08:09:50;;;;;;;6.23;2.10;;;22.50;99.90;;;;;;5094097;28;20205;-48
2023/06/27 08:12:15;;;;;;;9.27;2.50;;;22.60;99.90;;;;;;5093763;28;20179;-49
2023/06/27 08:14:43;;;;;;;8.70;1.97;;;22.80;99.90;;;;;;5093498;28;20199;-48
2023/06/27 08:17:09;;;;;;;7.70;2.27;;;22.80;99.90;;;;;;5093763;28;20175;-47
2023/06/27 08:19:34;;;;;;;9.57;2.20;;;23.00;99.90;;;;;;5093695;28;20781;-49
2023/06/27 08:22:00;;;;;;;7.20;2.00;;;23.00;99.90;;;;;;5093625;28;20193;-48
2023/06/27 08:24:25;;;;;;;7.43;2.30;;;23.10;99.90;;;;;;5093534;28;20207;-47
2023/06/27 08:26:54;;;;;;;6.97;2.10;;;23.00;99.90;;;;;;5094631;28;20263;-48
2023/06/27 08:29:20;;;;;;;6.53;1.70;;;23.10;99.90;;;;;;5093825;28;20214;-48
2023/06/27 08:31:46;;;;;;;6.13;1.73;;;23.20;99.90;;;;;;5093805;28;20213;-49
2023/06/27 08:34:12;;;;;;;6.47;1.70;;;23.30;99.90;;;;;;5093602;28;20202;-48
2023/06/27 08:36:37;;;;;;;5.77;2.30;;;23.30;99.90;;;;;;5093777;28;20175;-47
2023/06/27 08:39:03;;;;;;;5.40;1.77;;;23.30;99.90;;;;;;5093618;28;20230;-48
2023/06/27 08:41:29;;;;;;;6.97;1.90;;;23.40;99.90;;;;;;5093706;28;20531;-49
2023/06/27 08:43:55;;;;;;;6.87;2.33;;;23.50;99.90;;;;;;5093367;28;20542;-48
2023/06/27 08:46:22;;;;;;;6.83;2.13;;;23.40;99.90;;;;;;5093420;28;20720;-48
2023/06/27 08:48:50;;;;;;;5.80;2.30;;;23.40;99.90;;;;;;5093315;28;20182;-48
2023/06/27 08:51:18;;;;;;;7.87;2.10;;;23.60;99.90;;;;;;5093545;28;20185;-49
2023/06/27 08:53:49;;;;;;;5.60;1.90;;;23.60;99.90;;;;;;5093481;28;20179;-48
2023/06/27 08:56:18;;;;;;;7.63;2.00;;;23.50;99.90;;;;;;5093482;28;20541;-47
2023/06/27 08:58:50;;;;;;;9.13;1.97;;;23.40;99.90;;;;;;5093578;28;20195;-49
2023/06/27 09:01:16;;;;;;;16.90;3.60;;;23.50;99.90;;;;;;5075090;28;20279;-48
2023/06/27 09:03:41;;;;;;;7.70;2.27;;;23.60;99.90;;;;;;5093415;28;20254;-48
2023/06/27 09:06:07;;;;;;;15.63;3.83;;;23.70;99.90;;;;;;5093256;28;20206;-49
2023/06/27 09:08:34;;;;;;;9.87;2.90;;;23.80;99.90;;;;;;5093595;28;20648;-48
2023/06/27 09:11:01;;;;;;;13.00;3.33;;;24.00;99.90;;;;;;5093900;28;20186;-49
2023/06/27 09:13:27;;;;;;;16.73;3.03;;;24.00;99.90;;;;;;5093693;28;20228;-49
2023/06/27 09:15:53;;;;;;;10.13;3.23;;;24.00;99.90;;;;;;5093128;28;20195;-48
2023/06/27 09:18:19;;;;;;;11.43;3.10;;;24.00;99.90;;;;;;5092988;28;20203;-49
2023/06/27 09:20:45;;;;;;;8.20;2.43;;;24.00;99.90;;;;;;5093037;28;20693;-48
2023/06/27 09:23:11;;;;;;;6.87;2.40;;;24.20;99.90;;;;;;5093287;28;20179;-48
2023/06/27 09:25:37;;;;;;;13.57;3.83;;;24.10;99.90;;;;;;5093779;28;20193;-47
2023/06/27 09:28:16;;;;;;;14.33;2.50;;;24.20;99.90;;;;;;5097222;28;20579;-49
2023/06/27 09:30:55;;;;;;;9.53;2.50;;;24.20;99.90;;;;;;5097098;28;20650;-49
2023/06/27 09:33:21;;;;;;;8.00;2.40;;;24.30;99.90;;;;;;5097113;28;20186;-49
2023/06/27 09:35:47;;;;;;;5.87;1.93;;;24.40;99.90;;;;;;5096899;28;20670;-48
2023/06/27 09:38:12;;;;;;;7.47;2.10;;;24.50;99.90;;;;;;5096560;28;20620;-49
2023/06/27 09:40:39;;;;;;;8.17;2.27;;;24.60;99.90;;;;;;5096989;28;20182;-49
2023/06/27 09:43:06;;;;;;;6.07;2.10;;;24.60;99.90;;;;;;5096871;28;20252;-49
2023/06/27 09:45:32;;;;;;;9.27;2.13;;;24.60;99.90;;;;;;5096782;28;20219;-49
2023/06/27 09:47:58;;;;;;;8.83;2.27;;;24.60;99.90;;;;;;5096495;28;20655;-49
2023/06/27 09:50:28;;;;;;;7.77;2.43;;;24.40;99.90;;;;;;5096758;28;20639;-49
2023/06/27 09:52:59;;;;;;;9.03;2.20;;;24.30;99.90;;;;;;5096411;28;20601;-49
2023/06/27 09:55:25;;;;;;;7.90;2.73;;;24.30;99.90;;;;;;5096528;28;20611;-49
2023/06/27 09:57:51;;;;;;;7.03;1.97;;;24.30;99.90;;;;;;5096096;28;20676;-49
2023/06/27 10:00:20;;;;;;;8.83;1.70;;;24.20;99.90;;;;;;5078096;28;20171;-49
2023/06/27 10:02:50;;;;;;;7.03;1.90;;;24.10;99.90;;;;;;5096212;28;20183;-49
2023/06/27 10:05:17;;;;;;;7.13;2.30;;;24.00;99.90;;;;;;5096139;28;20195;-50
2023/06/27 10:07:44;;;;;;;5.83;2.23;;;23.90;99.90;;;;;;5096170;28;20261;-48
2023/06/27 10:10:10;;;;;;;5.17;2.27;;;24.10;99.90;;;;;;5096332;28;20178;-49
2023/06/27 10:12:36;;;;;;;5.50;1.80;;;24.10;99.90;;;;;;5096282;28;20179;-49
2023/06/27 10:15:03;;;;;;;6.40;1.43;;;24.00;99.90;;;;;;5096283;28;20198;-49
2023/06/27 10:17:29;;;;;;;5.90;1.60;;;24.00;99.90;;;;;;5078080;28;20178;-49
2023/06/27 10:19:56;;;;;;;8.67;2.00;;;24.10;99.90;;;;;;5096076;28;20221;-49
2023/06/27 10:22:26;;;;;;;8.40;2.10;;;24.10;99.90;;;;;;5096176;28;20208;-49
2023/06/27 10:24:56;;;;;;;5.10;2.00;;;24.00;99.90;;;;;;5096557;28;20294;-49
2023/06/27 10:27:24;;;;;;;9.30;2.00;;;24.10;99.90;;;;;;5096104;28;20258;-49
2023/06/27 10:29:50;;;;;;;4.20;1.80;;;24.10;99.90;;;;;;5095721;28;20175;-49
2023/06/27 10:32:16;;;;;;;4.17;1.63;;;24.20;99.90;;;;;;5095709;28;20595;-48
2023/06/27 10:34:43;;;;;;;6.93;1.70;;;24.30;99.90;;;;;;5096248;28;20664;-49
2023/06/27 10:37:10;;;;;;;4.27;1.57;;;24.40;99.90;;;;;;5095134;28;20183;-49
2023/06/27 10:39:37;;;;;;;4.20;1.60;;;24.30;99.90;;;;;;5095714;28;20203;-49
2023/06/27 10:42:18;;;;;;;5.43;1.73;;;24.40;99.90;;;;;;5095737;28;20179;-49
2023/06/27 10:45:09;;;;;;;5.47;1.57;;;24.50;99.90;;;;;;5095593;28;20199;-49
2023/06/27 10:47:44;;;;;;;5.73;1.73;;;24.50;99.90;;;;;;5095345;28;20183;-49
2023/06/27 10:50:15;;;;;;;4.90;1.60;;;24.40;99.90;;;;;;5095332;28;20223;-48
2023/06/27 10:52:59;;;;;;;3.37;1.90;;;24.30;99.90;;;;;;5095604;28;20608;-49
2023/06/27 10:55:28;;;;;;;8.37;2.03;;;24.20;99.90;;;;;;5095134;28;20675;-49
2023/06/27 10:58:02;;;;;;;8.73;2.23;;;24.10;99.90;;;;;;5095121;28;20219;-49
2023/06/27 11:00:31;;;;;;;4.70;1.30;;;24.10;99.90;;;;;;5095374;28;20190;-49
2023/06/27 11:02:58;;;;;;;4.33;2.00;;;24.10;99.90;;;;;;5094985;28;20686;-49
2023/06/27 11:05:44;;;;;;;5.33;1.50;;;24.10;99.90;;;;;;5094922;28;20191;-49
2023/06/27 11:08:16;;;;;;;2.83;1.77;;;24.10;99.90;;;;;;5094937;28;20171;-50
2023/06/27 11:10:58;;;;;;;4.20;1.77;;;24.30;99.90;;;;;;5095181;28;20269;-49
2023/06/27 11:13:23;;;;;;;2.63;1.60;;;24.30;99.90;;;;;;5095240;28;20202;-49
2023/06/27 11:15:51;;;;;;;3.30;1.40;;;24.50;99.90;;;;;;5095071;28;20228;-50
2023/06/27 11:18:18;;;;;;;3.60;1.53;;;24.70;99.90;;;;;;5095024;28;20215;-48
2023/06/27 11:20:44;;;;;;;4.17;1.67;;;24.80;99.90;;;;;;5094751;28;20319;-50
2023/06/27 11:23:12;;;;;;;4.43;1.40;;;24.70;99.90;;;;;;5094759;28;20219;-48
2023/06/27 11:25:40;;;;;;;5.57;1.50;;;24.60;99.90;;;;;;5094877;28;20198;-49
2023/06/27 11:28:06;;;;;;;6.87;1.77;;;24.40;99.90;;;;;;5094577;28;20639;-50
2023/06/27 11:30:33;;;;;;;5.57;1.40;;;24.30;99.90;;;;;;5094794;28;20179;-48
2023/06/27 11:32:59;;;;;;;9.57;1.50;;;24.20;99.90;;;;;;5094532;28;20256;-49
2023/06/27 11:35:25;;;;;;;6.30;1.60;;;24.20;99.90;;;;;;5094733;28;20202;-50
2023/06/27 11:37:54;;;;;;;4.47;1.30;;;24.20;99.90;;;;;;5094605;28;20707;-48
2023/06/27 11:40:21;;;;;;;2.80;1.33;;;24.20;99.90;;;;;;5094364;28;20578;-48
2023/06/27 11:42:47;;;;;;;5.90;1.47;;;24.30;99.90;;;;;;5094562;28;20175;-49
2023/06/27 11:45:13;;;;;;;4.27;1.47;;;24.40;99.90;;;;;;5094204;28;20307;-49
2023/06/27 11:47:39;;;;;;;4.60;1.70;;;24.50;99.90;;;;;;5094178;28;20175;-48
2023/06/27 11:50:09;;;;;;;7.27;1.47;;;24.60;99.90;;;;;;5093644;28;20187;-50
2023/06/27 11:52:35;;;;;;;5.33;1.63;;;24.60;99.90;;;;;;5094371;28;20592;-49
2023/06/27 11:55:04;;;;;;;6.03;1.60;;;24.50;99.90;;;;;;5094063;28;20651;-49
2023/06/27 11:57:52;;;;;;;3.90;1.33;;;24.60;99.90;;;;;;5093963;28;20199;-49
2023/06/27 12:00:24;;;;;;;2.80;1.30;;;24.60;99.90;;;;;;5094277;28;20171;-49
2023/06/27 12:02:51;;;;;;;3.50;1.47;;;24.50;99.90;;;;;;5094053;28;20163;-50
2023/06/27 12:05:18;;;;;;;3.13;1.30;;;24.20;99.90;;;;;;5093864;28;20194;-49
2023/06/27 12:08:04;;;;;;;10.17;1.80;;;24.10;99.90;;;;;;5094199;28;20690;-50
2023/06/27 12:10:51;;;;;;;5.90;2.17;;;24.00;99.90;;;;;;5093868;28;20646;-49
2023/06/27 12:13:16;;;;;;;8.23;2.03;;;23.70;99.90;;;;;;5094010;28;20518;-49
2023/06/27 12:15:44;;;;;;;3.00;1.10;;;23.60;99.90;;;;;;5094198;28;20203;-48
2023/06/27 12:18:11;;;;;;;2.70;1.30;;;23.50;99.90;;;;;;5093600;28;20679;-49
2023/06/27 12:20:44;;;;;;;5.33;1.40;;;23.50;99.90;;;;;;5093680;28;20171;-48
2023/06/27 12:23:10;;;;;;;7.63;1.60;;;23.40;99.90;;;;;;5093561;28;20194;-50
2023/06/27 12:25:38;;;;;;;4.03;1.67;;;23.40;99.90;;;;;;5093545;28;20190;-50
2023/06/27 12:28:03;;;;;;;2.23;1.33;;;23.30;99.90;;;;;;5093829;28;20239;-49
2023/06/27 12:30:29;;;;;;;4.20;1.67;;;23.40;99.90;;;;;;5093778;28;20182;-49
2023/06/27 12:32:55;;;;;;;4.53;1.27;;;23.60;99.90;;;;;;5093538;28;20541;-49
2023/06/27 12:35:20;;;;;;;5.53;1.43;;;23.80;99.90;;;;;;5093419;28;20202;-48
2023/06/27 12:37:46;;;;;;;8.00;1.80;;;23.90;99.90;;;;;;5093384;28;20183;-48
2023/06/27 12:40:15;;;;;;;3.90;1.50;;;24.10;99.90;;;;;;5093395;28;20178;-50
2023/06/27 12:42:41;;;;;;;4.83;1.63;;;24.10;99.90;;;;;;5093629;28;20190;-49
2023/06/27 12:45:07;;;;;;;5.67;1.60;;;24.20;99.90;;;;;;5093359;28;20194;-47